Kingsville, Missouri
Current Conditions -  °F | °C
As of 4:15 AM on Thursday 29 Jan 2015 (Local Time) from KRCM Reporting Station
Overcast Overcast  
Wind Chill: 38°   Ceiling: 2300
Heat Index: 45°   Visibility: 10mi
Dew Point: 34°   Wind: 15mph
Humidity: 66%   Direction: 320°NW
Pressure: 30.03"   Gusts: 30mph
Location:  38.74°N, 94.07°W
Report Text: KRCM 291015Z AUTO 32013G26KT 10SM OVC023 07/01 A3003 RMK AO2
Loading
Personal Weather Stations






























Interactive Weather Map New forecast layout! Learn more

10-Day Weather Forecast

Advertisements
Track Severe Weather on mobile